sensor_id;sensor_type;location;lat;lon;timestamp;temperature;humidity
70151;DHT22;57517;43.562;19.540;2024-02-04T00:00:44;102.90;2176.00
70151;DHT22;57517;43.562;19.540;2024-02-04T00:03:10;103.00;2124.80
70151;DHT22;57517;43.562;19.540;2024-02-04T00:05:36;103.00;2124.80
70151;DHT22;57517;43.562;19.540;2024-02-04T00:08:01;103.10;2099.20
70151;DHT22;57517;43.562;19.540;2024-02-04T00:10:28;103.20;2073.60
70151;DHT22;57517;43.562;19.540;2024-02-04T00:12:54;103.10;2124.80
70151;DHT22;57517;43.562;19.540;2024-02-04T00:15:20;103.10;2099.20
70151;DHT22;57517;43.562;19.540;2024-02-04T00:17:46;103.10;2124.80
70151;DHT22;57517;43.562;19.540;2024-02-04T00:20:11;102.90;2150.40
70151;DHT22;57517;43.562;19.540;2024-02-04T00:22:37;102.80;2201.60
70151;DHT22;57517;43.562;19.540;2024-02-04T00:25:03;102.70;2201.60
70151;DHT22;57517;43.562;19.540;2024-02-04T00:27:37;102.90;2201.60
70151;DHT22;57517;43.562;19.540;2024-02-04T00:30:03;103.00;2150.40
70151;DHT22;57517;43.562;19.540;2024-02-04T00:32:29;103.00;2150.40
70151;DHT22;57517;43.562;19.540;2024-02-04T00:34:55;103.00;2124.80
70151;DHT22;57517;43.562;19.540;2024-02-04T00:37:21;102.80;2227.20
70151;DHT22;57517;43.562;19.540;2024-02-04T00:39:47;77.70;2227.20
70151;DHT22;57517;43.562;19.540;2024-02-04T00:42:13;77.70;2227.20
70151;DHT22;57517;43.562;19.540;2024-02-04T00:44:38;102.50;2227.20
70151;DHT22;57517;43.562;19.540;2024-02-04T00:47:04;102.60;2227.20
70151;DHT22;57517;43.562;19.540;2024-02-04T00:49:30;102.50;2227.20
70151;DHT22;57517;43.562;19.540;2024-02-04T00:51:56;102.60;2227.20
70151;DHT22;57517;43.562;19.540;2024-02-04T00:54:21;102.70;2176.00
70151;DHT22;57517;43.562;19.540;2024-02-04T00:56:47;102.70;2176.00
70151;DHT22;57517;43.562;19.540;2024-02-04T00:59:13;102.90;2150.40
70151;DHT22;57517;43.562;19.540;2024-02-04T01:01:39;103.00;2124.80
70151;DHT22;57517;43.562;19.540;2024-02-04T01:04:05;103.00;2099.20
70151;DHT22;57517;43.562;19.540;2024-02-04T01:06:31;103.10;2073.60
70151;DHT22;57517;43.562;19.540;2024-02-04T01:08:57;103.10;2099.20
70151;DHT22;57517;43.562;19.540;2024-02-04T01:11:23;103.00;2124.80
70151;DHT22;57517;43.562;19.540;2024-02-04T01:13:48;103.10;2073.60
70151;DHT22;57517;43.562;19.540;2024-02-04T01:16:14;103.20;2048.00
70151;DHT22;57517;43.562;19.540;2024-02-04T01:18:40;103.10;2073.60
70151;DHT22;57517;43.562;19.540;2024-02-04T01:21:06;102.80;2201.60
70151;DHT22;57517;43.562;19.540;2024-02-04T01:23:32;102.80;2150.40
70151;DHT22;57517;43.562;19.540;2024-02-04T01:25:57;102.90;2099.20
70151;DHT22;57517;43.562;19.540;2024-02-04T01:28:23;103.00;2073.60
70151;DHT22;57517;43.562;19.540;2024-02-04T01:30:49;103.10;2048.00
70151;DHT22;57517;43.562;19.540;2024-02-04T01:33:15;103.00;2099.20
70151;DHT22;57517;43.562;19.540;2024-02-04T01:35:40;102.90;2124.80
70151;DHT22;57517;43.562;19.540;2024-02-04T01:38:06;102.90;2150.40
70151;DHT22;57517;43.562;19.540;2024-02-04T01:40:32;102.70;2150.40
70151;DHT22;57517;43.562;19.540;2024-02-04T01:42:58;102.40;2227.20
70151;DHT22;57517;43.562;19.540;2024-02-04T01:45:23;77.70;2227.20
70151;DHT22;57517;43.562;19.540;2024-02-04T01:47:50;77.70;2227.20
70151;DHT22;57517;43.562;19.540;2024-02-04T01:50:16;77.70;2227.20
70151;DHT22;57517;43.562;19.540;2024-02-04T01:52:43;77.50;2227.20
70151;DHT22;57517;43.562;19.540;2024-02-04T01:55:09;77.50;2227.20
70151;DHT22;57517;43.562;19.540;2024-02-04T01:57:35;77.70;2227.20
70151;DHT22;57517;43.562;19.540;2024-02-04T02:00:02;102.50;2227.20
70151;DHT22;57517;43.562;19.540;2024-02-04T02:02:30;102.60;2176.00
70151;DHT22;57517;43.562;19.540;2024-02-04T02:04:57;102.50;2227.20
70151;DHT22;57517;43.562;19.540;2024-02-04T02:07:23;102.50;2227.20
70151;DHT22;57517;43.562;19.540;2024-02-04T02:09:53;102.40;2227.20
70151;DHT22;57517;43.562;19.540;2024-02-04T02:12:33;77.60;2227.20
70151;DHT22;57517;43.562;19.540;2024-02-04T02:15:10;102.40;2176.00
70151;DHT22;57517;43.562;19.540;2024-02-04T02:17:58;102.50;2150.40
70151;DHT22;57517;43.562;19.540;2024-02-04T02:20:46;102.60;2150.40
70151;DHT22;57517;43.562;19.540;2024-02-04T02:23:22;102.70;2099.20
70151;DHT22;57517;43.562;19.540;2024-02-04T02:25:49;102.80;2073.60
70151;DHT22;57517;43.562;19.540;2024-02-04T02:28:15;102.80;2048.00
70151;DHT22;57517;43.562;19.540;2024-02-04T02:30:41;102.90;2048.00
70151;DHT22;57517;43.562;19.540;2024-02-04T02:33:06;102.90;2022.40
70151;DHT22;57517;43.562;19.540;2024-02-04T02:35:34;102.80;2073.60
70151;DHT22;57517;43.562;19.540;2024-02-04T02:38:06;102.70;2124.80
70151;DHT22;57517;43.562;19.540;2024-02-04T02:40:54;77.70;2227.20
70151;DHT22;57517;43.562;19.540;2024-02-04T02:43:24;77.60;2227.20
70151;DHT22;57517;43.562;19.540;2024-02-04T02:45:50;77.60;2227.20
70151;DHT22;57517;43.562;19.540;2024-02-04T02:48:16;77.50;2227.20
70151;DHT22;57517;43.562;19.540;2024-02-04T02:50:42;77.50;2227.20
70151;DHT22;57517;43.562;19.540;2024-02-04T02:53:08;77.30;2227.20
70151;DHT22;57517;43.562;19.540;2024-02-04T02:55:34;77.20;2227.20
70151;DHT22;57517;43.562;19.540;2024-02-04T02:57:59;77.20;2227.20
70151;DHT22;57517;43.562;19.540;2024-02-04T03:00:25;77.40;2227.20
70151;DHT22;57517;43.562;19.540;2024-02-04T03:02:51;77.70;2227.20
70151;DHT22;57517;43.562;19.540;2024-02-04T03:05:17;102.40;2227.20
70151;DHT22;57517;43.562;19.540;2024-02-04T03:07:43;102.60;2176.00
70151;DHT22;57517;43.562;19.540;2024-02-04T03:10:09;102.70;2124.80
70151;DHT22;57517;43.562;19.540;2024-02-04T03:12:35;102.70;2150.40
70151;DHT22;57517;43.562;19.540;2024-02-04T03:15:01;102.60;2176.00
70151;DHT22;57517;43.562;19.540;2024-02-04T03:17:27;102.70;2124.80
70151;DHT22;57517;43.562;19.540;2024-02-04T03:19:53;102.80;2124.80
70151;DHT22;57517;43.562;19.540;2024-02-04T03:22:23;102.80;2124.80
70151;DHT22;57517;43.562;19.540;2024-02-04T03:24:49;102.80;2124.80
70151;DHT22;57517;43.562;19.540;2024-02-04T03:27:17;77.70;2227.20
70151;DHT22;57517;43.562;19.540;2024-02-04T03:29:43;77.60;2227.20
70151;DHT22;57517;43.562;19.540;2024-02-04T03:32:10;77.40;2227.20
70151;DHT22;57517;43.562;19.540;2024-02-04T03:34:36;77.40;2227.20
70151;DHT22;57517;43.562;19.540;2024-02-04T03:37:02;77.50;2227.20
70151;DHT22;57517;43.562;19.540;2024-02-04T03:39:28;77.60;2227.20
70151;DHT22;57517;43.562;19.540;2024-02-04T03:41:54;102.40;2176.00
70151;DHT22;57517;43.562;19.540;2024-02-04T03:44:19;102.50;2150.40
70151;DHT22;57517;43.562;19.540;2024-02-04T03:46:49;102.70;2124.80
70151;DHT22;57517;43.562;19.540;2024-02-04T03:49:16;102.70;2150.40
70151;DHT22;57517;43.562;19.540;2024-02-04T03:51:42;102.80;2099.20
70151;DHT22;57517;43.562;19.540;2024-02-04T03:54:07;102.90;2099.20
70151;DHT22;57517;43.562;19.540;2024-02-04T03:56:33;102.70;2150.40
70151;DHT22;57517;43.562;19.540;2024-02-04T03:58:59;102.70;2176.00
70151;DHT22;57517;43.562;19.540;2024-02-04T04:01:25;102.60;2201.60
70151;DHT22;57517;43.562;19.540;2024-02-04T04:03:50;102.70;2150.40
70151;DHT22;57517;43.562;19.540;2024-02-04T04:06:16;102.60;2176.00
70151;DHT22;57517;43.562;19.540;2024-02-04T04:08:42;102.70;2150.40
70151;DHT22;57517;43.562;19.540;2024-02-04T04:11:09;102.80;2124.80
70151;DHT22;57517;43.562;19.540;2024-02-04T04:13:36;102.80;2073.60
70151;DHT22;57517;43.562;19.540;2024-02-04T04:16:03;102.80;2099.20
70151;DHT22;57517;43.562;19.540;2024-02-04T04:18:29;102.90;2073.60
70151;DHT22;57517;43.562;19.540;2024-02-04T04:20:56;102.80;2073.60
70151;DHT22;57517;43.562;19.540;2024-02-04T04:23:22;102.80;2124.80
70151;DHT22;57517;43.562;19.540;2024-02-04T04:25:47;102.80;2124.80
70151;DHT22;57517;43.562;19.540;2024-02-04T04:28:13;102.80;2124.80
70151;DHT22;57517;43.562;19.540;2024-02-04T04:30:39;102.50;2227.20
70151;DHT22;57517;43.562;19.540;2024-02-04T04:33:05;77.70;2227.20
70151;DHT22;57517;43.562;19.540;2024-02-04T04:35:32;77.70;2227.20
70151;DHT22;57517;43.562;19.540;2024-02-04T04:37:57;77.70;2227.20
70151;DHT22;57517;43.562;19.540;2024-02-04T04:40:23;77.60;2227.20
70151;DHT22;57517;43.562;19.540;2024-02-04T04:42:49;102.40;2201.60
70151;DHT22;57517;43.562;19.540;2024-02-04T04:45:15;102.40;2227.20
70151;DHT22;57517;43.562;19.540;2024-02-04T04:47:41;102.50;2201.60
70151;DHT22;57517;43.562;19.540;2024-02-04T04:50:07;102.60;2176.00
70151;DHT22;57517;43.562;19.540;2024-02-04T04:52:32;102.60;2176.00
70151;DHT22;57517;43.562;19.540;2024-02-04T04:54:58;102.70;2150.40
70151;DHT22;57517;43.562;19.540;2024-02-04T04:57:24;102.80;2124.80
70151;DHT22;57517;43.562;19.540;2024-02-04T04:59:50;102.70;2176.00
70151;DHT22;57517;43.562;19.540;2024-02-04T05:02:16;102.70;2176.00
70151;DHT22;57517;43.562;19.540;2024-02-04T05:04:45;102.70;2201.60
70151;DHT22;57517;43.562;19.540;2024-02-04T05:07:11;102.50;2176.00
70151;DHT22;57517;43.562;19.540;2024-02-04T05:09:37;102.60;2176.00
70151;DHT22;57517;43.562;19.540;2024-02-04T05:12:03;102.60;2150.40
70151;DHT22;57517;43.562;19.540;2024-02-04T05:14:29;102.60;2150.40
70151;DHT22;57517;43.562;19.540;2024-02-04T05:16:55;102.50;2150.40
70151;DHT22;57517;43.562;19.540;2024-02-04T05:19:21;102.40;2227.20
70151;DHT22;57517;43.562;19.540;2024-02-04T05:21:47;102.50;2176.00
70151;DHT22;57517;43.562;19.540;2024-02-04T05:24:12;102.50;2176.00
70151;DHT22;57517;43.562;19.540;2024-02-04T05:26:38;102.50;2176.00
70151;DHT22;57517;43.562;19.540;2024-02-04T05:29:04;102.50;2176.00
70151;DHT22;57517;43.562;19.540;2024-02-04T05:31:30;102.50;2150.40
70151;DHT22;57517;43.562;19.540;2024-02-04T05:33:56;102.50;2176.00
70151;DHT22;57517;43.562;19.540;2024-02-04T05:36:22;102.40;2201.60
70151;DHT22;57517;43.562;19.540;2024-02-04T05:38:48;102.40;2201.60
70151;DHT22;57517;43.562;19.540;2024-02-04T05:41:13;102.40;2201.60
70151;DHT22;57517;43.562;19.540;2024-02-04T05:43:39;102.40;2176.00
70151;DHT22;57517;43.562;19.540;2024-02-04T05:46:05;77.70;2227.20
70151;DHT22;57517;43.562;19.540;2024-02-04T05:48:31;77.50;2227.20
70151;DHT22;57517;43.562;19.540;2024-02-04T05:50:57;77.30;2227.20
70151;DHT22;57517;43.562;19.540;2024-02-04T05:53:24;77.30;2227.20
70151;DHT22;57517;43.562;19.540;2024-02-04T05:55:49;77.30;2227.20
70151;DHT22;57517;43.562;19.540;2024-02-04T05:58:15;77.20;2227.20
70151;DHT22;57517;43.562;19.540;2024-02-04T06:00:41;77.20;2227.20
70151;DHT22;57517;43.562;19.540;2024-02-04T06:03:07;77.30;2227.20
70151;DHT22;57517;43.562;19.540;2024-02-04T06:05:32;77.30;2227.20
70151;DHT22;57517;43.562;19.540;2024-02-04T06:07:58;77.40;2227.20
70151;DHT22;57517;43.562;19.540;2024-02-04T06:10:24;77.50;2201.60
70151;DHT22;57517;43.562;19.540;2024-02-04T06:12:50;77.50;2201.60
70151;DHT22;57517;43.562;19.540;2024-02-04T06:15:16;77.60;2201.60
70151;DHT22;57517;43.562;19.540;2024-02-04T06:17:42;77.70;2176.00
70151;DHT22;57517;43.562;19.540;2024-02-04T06:20:08;102.40;2150.40
70151;DHT22;57517;43.562;19.540;2024-02-04T06:22:35;102.50;2099.20
70151;DHT22;57517;43.562;19.540;2024-02-04T06:25:02;102.50;2099.20
70151;DHT22;57517;43.562;19.540;2024-02-04T06:27:27;102.40;2124.80
70151;DHT22;57517;43.562;19.540;2024-02-04T06:29:53;102.50;2124.80
70151;DHT22;57517;43.562;19.540;2024-02-04T06:32:19;102.50;2099.20
70151;DHT22;57517;43.562;19.540;2024-02-04T06:34:47;102.70;2073.60
70151;DHT22;57517;43.562;19.540;2024-02-04T06:37:13;102.80;2048.00
70151;DHT22;57517;43.562;19.540;2024-02-04T06:39:39;102.80;2048.00
70151;DHT22;57517;43.562;19.540;2024-02-04T06:42:05;103.00;2022.40
70151;DHT22;57517;43.562;19.540;2024-02-04T06:44:30;103.00;2099.20
70151;DHT22;57517;43.562;19.540;2024-02-04T06:46:56;103.10;2048.00
70151;DHT22;57517;43.562;19.540;2024-02-04T06:49:22;103.00;2048.00
70151;DHT22;57517;43.562;19.540;2024-02-04T06:51:48;103.00;2022.40
70151;DHT22;57517;43.562;19.540;2024-02-04T06:54:14;102.90;2048.00
70151;DHT22;57517;43.562;19.540;2024-02-04T06:56:40;102.80;2048.00
70151;DHT22;57517;43.562;19.540;2024-02-04T06:59:06;102.80;2073.60
70151;DHT22;57517;43.562;19.540;2024-02-04T07:01:33;102.80;2073.60
70151;DHT22;57517;43.562;19.540;2024-02-04T07:03:58;102.80;2048.00
70151;DHT22;57517;43.562;19.540;2024-02-04T07:06:24;103.00;2048.00
70151;DHT22;57517;43.562;19.540;2024-02-04T07:08:50;128.10;2022.40
70151;DHT22;57517;43.562;19.540;2024-02-04T07:11:16;128.70;1945.60
70151;DHT22;57517;43.562;19.540;2024-02-04T07:13:42;154.00;1868.80
70151;DHT22;57517;43.562;19.540;2024-02-04T07:16:08;179.50;1792.00
70151;DHT22;57517;43.562;19.540;2024-02-04T07:18:34;205.00;1664.00
70151;DHT22;57517;43.562;19.540;2024-02-04T07:20:59;205.60;1561.60
70151;DHT22;57517;43.562;19.540;2024-02-04T07:23:25;230.60;1510.40
70151;DHT22;57517;43.562;19.540;2024-02-04T07:25:51;230.70;1484.80
70151;DHT22;57517;43.562;19.540;2024-02-04T07:28:16;256.10;1433.60
70151;DHT22;57517;43.562;19.540;2024-02-04T07:30:42;256.60;1382.40
70151;DHT22;57517;43.562;19.540;2024-02-04T07:33:08;281.70;1356.80
70151;DHT22;57517;43.562;19.540;2024-02-04T07:35:34;282.20;1305.60
70151;DHT22;57517;43.562;19.540;2024-02-04T07:38:00;307.40;1305.60
70151;DHT22;57517;43.562;19.540;2024-02-04T07:40:26;332.90;1280.00
70151;DHT22;57517;43.562;19.540;2024-02-04T07:42:53;333.70;1203.20
70151;DHT22;57517;43.562;19.540;2024-02-04T07:45:19;359.10;1177.60
70151;DHT22;57517;43.562;19.540;2024-02-04T07:47:45;384.70;1100.80
70151;DHT22;57517;43.562;19.540;2024-02-04T07:50:12;410.30;1075.20
70151;DHT22;57517;43.562;19.540;2024-02-04T07:52:37;435.90;998.40
70151;DHT22;57517;43.562;19.540;2024-02-04T07:55:03;461.00;998.40
70151;DHT22;57517;43.562;19.540;2024-02-04T07:57:29;486.80;947.20
70151;DHT22;57517;43.562;19.540;2024-02-04T07:59:55;512.40;870.40
70151;DHT22;57517;43.562;19.540;2024-02-04T08:02:21;538.10;870.40
70151;DHT22;57517;43.562;19.540;2024-02-04T08:04:46;563.90;819.20
70151;DHT22;57517;43.562;19.540;2024-02-04T08:07:12;589.50;768.00
70151;DHT22;57517;43.562;19.540;2024-02-04T08:09:38;640.00;716.80
70151;DHT22;57517;43.562;19.540;2024-02-04T08:12:04;665.60;691.20
70151;DHT22;57517;43.562;19.540;2024-02-04T08:14:30;666.30;665.60
70151;DHT22;57517;43.562;19.540;2024-02-04T08:16:56;691.80;614.40
70151;DHT22;57517;43.562;19.540;2024-02-04T08:19:22;717.30;640.00
70151;DHT22;57517;43.562;19.540;2024-02-04T08:21:47;742.60;614.40
70151;DHT22;57517;43.562;19.540;2024-02-04T08:24:13;743.30;588.80
70151;DHT22;57517;43.562;19.540;2024-02-04T08:26:39;793.70;588.80
70151;DHT22;57517;43.562;19.540;2024-02-04T08:29:05;819.20;563.20
70151;DHT22;57517;43.562;19.540;2024-02-04T08:31:32;820.00;537.60
70151;DHT22;57517;43.562;19.540;2024-02-04T08:33:59;844.90;563.20
70151;DHT22;57517;43.562;19.540;2024-02-04T08:36:24;844.90;563.20
70151;DHT22;57517;43.562;19.540;2024-02-04T08:43:43;870.50;537.60
70151;DHT22;57517;43.562;19.540;2024-02-04T08:48:34;896.70;512.00
70151;DHT22;57517;43.562;19.540;2024-02-04T08:53:28;922.30;486.40
70151;DHT22;57517;43.562;19.540;2024-02-04T08:55:53;922.50;460.80
70151;DHT22;57517;43.562;19.540;2024-02-04T08:58:19;921.80;512.00
70151;DHT22;57517;43.562;19.540;2024-02-04T09:00:45;921.90;486.40
70151;DHT22;57517;43.562;19.540;2024-02-04T09:03:11;947.50;460.80
70151;DHT22;57517;43.562;19.540;2024-02-04T09:05:38;973.00;486.40
70151;DHT22;57517;43.562;19.540;2024-02-04T09:08:04;973.70;435.20
70151;DHT22;57517;43.562;19.540;2024-02-04T09:10:29;973.50;460.80
70151;DHT22;57517;43.562;19.540;2024-02-04T09:20:16;947.50;460.80
70151;DHT22;57517;43.562;19.540;2024-02-04T09:22:42;947.20;460.80
70151;DHT22;57517;43.562;19.540;2024-02-04T09:25:08;870.80;512.00
70151;DHT22;57517;43.562;19.540;2024-02-04T09:27:34;921.90;486.40
70151;DHT22;57517;43.562;19.540;2024-02-04T09:32:26;973.70;435.20
70151;DHT22;57517;43.562;19.540;2024-02-04T09:34:52;972.80;460.80
70151;DHT22;57517;43.562;19.540;2024-02-04T09:37:18;998.60;460.80
70151;DHT22;57517;43.562;19.540;2024-02-04T09:39:44;1024.10;435.20
70151;DHT22;57517;43.562;19.540;2024-02-04T09:54:27;1101.00;435.20
70151;DHT22;57517;43.562;19.540;2024-02-04T09:56:55;1101.40;409.60
70151;DHT22;57517;43.562;19.540;2024-02-04T09:59:21;1126.50;409.60
70151;DHT22;57517;43.562;19.540;2024-02-04T10:01:47;1101.70;409.60
70151;DHT22;57517;43.562;19.540;2024-02-04T10:04:13;1127.30;409.60
70151;DHT22;57517;43.562;19.540;2024-02-04T10:06:39;972.80;460.80
70151;DHT22;57517;43.562;19.540;2024-02-04T10:11:30;896.50;460.80
70151;DHT22;57517;43.562;19.540;2024-02-04T10:18:48;972.90;460.80
70151;DHT22;57517;43.562;19.540;2024-02-04T10:21:21;845.70;512.00
70151;DHT22;57517;43.562;19.540;2024-02-04T10:23:50;896.60;486.40
70151;DHT22;57517;43.562;19.540;2024-02-04T10:26:17;896.40;486.40
70151;DHT22;57517;43.562;19.540;2024-02-04T10:28:45;896.20;486.40
70151;DHT22;57517;43.562;19.540;2024-02-04T10:31:13;896.80;486.40
70151;DHT22;57517;43.562;19.540;2024-02-04T10:36:05;973.20;486.40
70151;DHT22;57517;43.562;19.540;2024-02-04T10:38:32;948.10;486.40
70151;DHT22;57517;43.562;19.540;2024-02-04T10:46:03;1075.60;435.20
70151;DHT22;57517;43.562;19.540;2024-02-04T10:48:36;1076.00;409.60
70151;DHT22;57517;43.562;19.540;2024-02-04T10:53:43;1075.70;409.60
70151;DHT22;57517;43.562;19.540;2024-02-04T10:58:47;1075.90;409.60
70151;DHT22;57517;43.562;19.540;2024-02-04T11:08:41;896.80;512.00
70151;DHT22;57517;43.562;19.540;2024-02-04T11:11:06;870.70;537.60
70151;DHT22;57517;43.562;19.540;2024-02-04T11:13:32;793.80;563.20
70151;DHT22;57517;43.562;19.540;2024-02-04T11:16:02;717.60;588.80
70151;DHT22;57517;43.562;19.540;2024-02-04T11:21:38;615.20;665.60
70151;DHT22;57517;43.562;19.540;2024-02-04T11:27:11;563.80;793.60
70151;DHT22;57517;43.562;19.540;2024-02-04T11:29:37;563.20;819.20
70151;DHT22;57517;43.562;19.540;2024-02-04T11:32:05;538.30;819.20
70151;DHT22;57517;43.562;19.540;2024-02-04T11:34:33;538.30;819.20
70151;DHT22;57517;43.562;19.540;2024-02-04T11:37:00;538.10;819.20
70151;DHT22;57517;43.562;19.540;2024-02-04T11:39:26;537.80;844.80
70151;DHT22;57517;43.562;19.540;2024-02-04T11:41:52;512.90;844.80
70151;DHT22;57517;43.562;19.540;2024-02-04T11:44:25;512.60;844.80
70151;DHT22;57517;43.562;19.540;2024-02-04T11:46:52;512.10;870.40
70151;DHT22;57517;43.562;19.540;2024-02-04T11:49:24;487.10;896.00
70151;DHT22;57517;43.562;19.540;2024-02-04T11:51:52;486.70;921.60
70151;DHT22;57517;43.562;19.540;2024-02-04T11:54:20;486.50;921.60
70151;DHT22;57517;43.562;19.540;2024-02-04T11:56:51;461.70;947.20
70151;DHT22;57517;43.562;19.540;2024-02-04T11:59:21;461.70;947.20
70151;DHT22;57517;43.562;19.540;2024-02-04T12:01:48;461.70;998.40
70151;DHT22;57517;43.562;19.540;2024-02-04T12:04:16;460.90;972.80
70151;DHT22;57517;43.562;19.540;2024-02-04T12:06:42;436.10;972.80
70151;DHT22;57517;43.562;19.540;2024-02-04T12:09:09;461.00;998.40
70151;DHT22;57517;43.562;19.540;2024-02-04T12:11:38;460.90;998.40
70151;DHT22;57517;43.562;19.540;2024-02-04T12:14:05;435.70;998.40
70151;DHT22;57517;43.562;19.540;2024-02-04T12:16:33;435.70;998.40
70151;DHT22;57517;43.562;19.540;2024-02-04T12:19:01;435.40;1024.00
70151;DHT22;57517;43.562;19.540;2024-02-04T12:21:29;435.30;1024.00
70151;DHT22;57517;43.562;19.540;2024-02-04T12:23:55;435.20;1049.60
70151;DHT22;57517;43.562;19.540;2024-02-04T12:26:22;410.00;1075.20
70151;DHT22;57517;43.562;19.540;2024-02-04T12:28:49;410.00;1075.20
70151;DHT22;57517;43.562;19.540;2024-02-04T12:31:19;410.10;1075.20
70151;DHT22;57517;43.562;19.540;2024-02-04T12:33:59;410.30;1049.60
70151;DHT22;57517;43.562;19.540;2024-02-04T12:36:30;410.10;1049.60
70151;DHT22;57517;43.562;19.540;2024-02-04T12:38:58;410.20;1075.20
70151;DHT22;57517;43.562;19.540;2024-02-04T12:41:25;410.00;1075.20
70151;DHT22;57517;43.562;19.540;2024-02-04T12:43:52;410.20;1049.60
70151;DHT22;57517;43.562;19.540;2024-02-04T12:46:19;410.30;1049.60
70151;DHT22;57517;43.562;19.540;2024-02-04T12:48:50;410.50;1075.20
70151;DHT22;57517;43.562;19.540;2024-02-04T12:51:30;435.20;1049.60
70151;DHT22;57517;43.562;19.540;2024-02-04T12:54:08;435.40;1024.00
70151;DHT22;57517;43.562;19.540;2024-02-04T12:59:10;435.70;1024.00
70151;DHT22;57517;43.562;19.540;2024-02-04T13:01:39;435.80;998.40
70151;DHT22;57517;43.562;19.540;2024-02-04T13:04:05;436.10;998.40
70151;DHT22;57517;43.562;19.540;2024-02-04T13:06:31;436.10;998.40
70151;DHT22;57517;43.562;19.540;2024-02-04T13:08:57;436.00;998.40
70151;DHT22;57517;43.562;19.540;2024-02-04T13:11:24;435.60;1024.00
70151;DHT22;57517;43.562;19.540;2024-02-04T13:13:50;435.50;1024.00
70151;DHT22;57517;43.562;19.540;2024-02-04T13:16:17;435.60;1024.00
70151;DHT22;57517;43.562;19.540;2024-02-04T13:18:51;435.60;1024.00
70151;DHT22;57517;43.562;19.540;2024-02-04T13:21:17;435.70;1049.60
70151;DHT22;57517;43.562;19.540;2024-02-04T13:23:45;435.60;1024.00
70151;DHT22;57517;43.562;19.540;2024-02-04T13:26:11;435.30;1024.00
70151;DHT22;57517;43.562;19.540;2024-02-04T13:28:38;410.50;1024.00
70151;DHT22;57517;43.562;19.540;2024-02-04T13:31:04;435.20;1024.00
70151;DHT22;57517;43.562;19.540;2024-02-04T13:33:30;410.50;1049.60
70151;DHT22;57517;43.562;19.540;2024-02-04T13:35:56;435.40;1024.00
70151;DHT22;57517;43.562;19.540;2024-02-04T13:38:22;435.50;1049.60
70151;DHT22;57517;43.562;19.540;2024-02-04T13:40:48;435.70;1024.00
70151;DHT22;57517;43.562;19.540;2024-02-04T13:43:14;435.70;1024.00
70151;DHT22;57517;43.562;19.540;2024-02-04T13:45:40;435.70;1024.00
70151;DHT22;57517;43.562;19.540;2024-02-04T13:48:06;435.70;1024.00
70151;DHT22;57517;43.562;19.540;2024-02-04T13:50:31;435.60;1024.00
70151;DHT22;57517;43.562;19.540;2024-02-04T13:52:57;435.40;1024.00
70151;DHT22;57517;43.562;19.540;2024-02-04T13:55:24;435.40;1049.60
70151;DHT22;57517;43.562;19.540;2024-02-04T13:57:50;435.70;1049.60
70151;DHT22;57517;43.562;19.540;2024-02-04T14:00:16;435.70;1024.00
70151;DHT22;57517;43.562;19.540;2024-02-04T14:02:43;435.60;1049.60
70151;DHT22;57517;43.562;19.540;2024-02-04T14:05:09;435.40;1049.60
70151;DHT22;57517;43.562;19.540;2024-02-04T14:07:35;410.40;1100.80
70151;DHT22;57517;43.562;19.540;2024-02-04T14:10:00;435.20;1075.20
70151;DHT22;57517;43.562;19.540;2024-02-04T14:12:26;435.30;1075.20
70151;DHT22;57517;43.562;19.540;2024-02-04T14:14:54;435.20;1075.20
70151;DHT22;57517;43.562;19.540;2024-02-04T14:17:20;435.40;1049.60
70151;DHT22;57517;43.562;19.540;2024-02-04T14:19:46;435.40;1049.60
70151;DHT22;57517;43.562;19.540;2024-02-04T14:22:15;435.50;1049.60
70151;DHT22;57517;43.562;19.540;2024-02-04T14:24:42;435.50;1049.60
70151;DHT22;57517;43.562;19.540;2024-02-04T14:27:08;435.40;1049.60
70151;DHT22;57517;43.562;19.540;2024-02-04T14:29:34;435.30;1049.60
70151;DHT22;57517;43.562;19.540;2024-02-04T14:32:00;435.20;1049.60
70151;DHT22;57517;43.562;19.540;2024-02-04T14:34:26;435.30;1049.60
70151;DHT22;57517;43.562;19.540;2024-02-04T14:36:53;435.20;1075.20
70151;DHT22;57517;43.562;19.540;2024-02-04T14:39:19;410.50;1075.20
70151;DHT22;57517;43.562;19.540;2024-02-04T14:41:45;410.30;1100.80
70151;DHT22;57517;43.562;19.540;2024-02-04T14:44:11;410.00;1126.40
70151;DHT22;57517;43.562;19.540;2024-02-04T14:46:37;410.00;1126.40
70151;DHT22;57517;43.562;19.540;2024-02-04T14:49:04;410.10;1126.40
70151;DHT22;57517;43.562;19.540;2024-02-04T14:51:30;409.80;1126.40
70151;DHT22;57517;43.562;19.540;2024-02-04T14:53:59;409.70;1152.00
70151;DHT22;57517;43.562;19.540;2024-02-04T14:56:24;384.90;1152.00
70151;DHT22;57517;43.562;19.540;2024-02-04T14:58:50;384.80;1152.00
70151;DHT22;57517;43.562;19.540;2024-02-04T15:01:16;384.80;1152.00
70151;DHT22;57517;43.562;19.540;2024-02-04T15:03:42;384.70;1152.00
70151;DHT22;57517;43.562;19.540;2024-02-04T15:06:08;384.60;1152.00
70151;DHT22;57517;43.562;19.540;2024-02-04T15:08:34;384.40;1177.60
70151;DHT22;57517;43.562;19.540;2024-02-04T15:11:00;384.20;1177.60
70151;DHT22;57517;43.562;19.540;2024-02-04T15:13:26;384.10;1203.20
70151;DHT22;57517;43.562;19.540;2024-02-04T15:15:52;359.30;1228.80
70151;DHT22;57517;43.562;19.540;2024-02-04T15:18:18;359.30;1228.80
70151;DHT22;57517;43.562;19.540;2024-02-04T15:20:44;359.30;1228.80
70151;DHT22;57517;43.562;19.540;2024-02-04T15:23:10;384.00;1254.40
70151;DHT22;57517;43.562;19.540;2024-02-04T15:25:37;384.00;1228.80
70151;DHT22;57517;43.562;19.540;2024-02-04T15:28:04;359.30;1254.40
70151;DHT22;57517;43.562;19.540;2024-02-04T15:30:31;359.00;1254.40
70151;DHT22;57517;43.562;19.540;2024-02-04T15:32:57;358.90;1254.40
70151;DHT22;57517;43.562;19.540;2024-02-04T15:35:23;358.90;1280.00
70151;DHT22;57517;43.562;19.540;2024-02-04T15:37:50;358.90;1254.40
70151;DHT22;57517;43.562;19.540;2024-02-04T15:40:17;358.80;1280.00
70151;DHT22;57517;43.562;19.540;2024-02-04T15:42:44;358.80;1280.00